Pagrindinis puslapis
METAR-TAF:

METAR-TAF

Oro uostai :

Svolvær, Norvegija

platuma: 68-15N, ilguma: 014-40E, Aukštis: 0 m

Dabartinis oras

Ataskaita buvo paskelbta 29 minutes, ne 09:20 UTC
Vėjas 4 kt iš Vakarų/Šiaurės Vakarų
Temperatūra -2°C
Drėgmė 63%
Slėgis 982 hPa
Matomumas 10 km arba daugiau
Mažai debesys ne aukštis 3000 ft
Išsisklaidę debesys ne aukštis 4500 ft

METAR: ENSH 090920Z 30004KT 9999 FEW030 SCT045 M02/M08 Q0982 RMK WIND 150FT 35007KT

Laikas: 10:49 (09:49 UTC)

Prognozė

Ataskaita buvo paskelbta 4 valandos ir 49 minutes, ne 05:00 UTC
Prognozė galioja nuo 09 metu 06 UTC su 09 metu 11 UTC
Vėjas 15 kt iš Šiaurės/Šiaurės Vakarų
Matomumas 10 km arba daugiau
Mažai debesys ne aukštis 3000 ft
Laikinai
nuo 09 metu 09 UTC su 09 metu 11 UTC
Vėjas 8 kt nuo kintamojo kryptimis

TAF: ENSH 090500Z 0906/0911 34015KT 9999 FEW030 TEMPO 0909/0911 VRB08KT

Orai ataskaitas ir orų prognozės (METAR, TAF).

turimą stotys yra geltonos ir raudonos taškus žemėlapyje.

Perkelti pele per norėdami pamatyti stoties vardą.

Tada spustelėkite, norėdami matyti oro stebėjimo ir prognozės.

Norėdami pakeisti žemėlapį: spustelėkite ant žalios mygtukų su juodo kryžiaus žemyn,; žalią mygtuką su brūkšneliu, jei norite nutolinti; arba žalių rodyklių gretimoms žemėlapius.


METAR-TAF: